Aalburg, Netherlands
Current Conditions -  °F | °C
As of 9:03 AM on Saturday 25 Oct 2014 (Local Time) from EHGR Reporting Station
Haze Haze  
Wind Chill: 55°   Ceiling: 200
Heat Index: 55°   Visibility: 1.1mi
Dew Point: 54°   Wind: 6mph
Humidity: 94%   Direction: 210°SSW
Pressure: 30.03"   Gusts: NA
Location:  51.75°N, 5.13°E
Report Text: EHGR 250703Z AUTO 21005KT 1900 BR OVC002 13/12 Q1017 AMB
Loading
Personal Weather Stations






























Interactive Weather Map
Tropical Storm Tracking
New forecast layout! Learn more

10-Day Weather Forecast

Advertisements
Track Severe Weather on mobile